createdAt,value
2019-06-26T00:04:00.506Z,26.80
2019-06-26T00:09:08.166Z,26.70
2019-06-26T00:14:13.582Z,26.70
2019-06-26T00:19:18.565Z,26.40
2019-06-26T00:24:23.933Z,26.50
2019-06-26T00:29:29.537Z,26.30
2019-06-26T00:34:34.949Z,26.50
2019-06-26T00:39:40.386Z,26.60
2019-06-26T00:44:46.356Z,26.60
2019-06-26T00:49:51.464Z,26.50
2019-06-26T00:54:56.961Z,26.60
2019-06-26T01:00:04.455Z,26.30
2019-06-26T01:05:11.108Z,26.50
2019-06-26T01:10:16.941Z,26.70
2019-06-26T01:15:22.163Z,26.60
2019-06-26T01:20:27.228Z,26.80
2019-06-26T01:25:32.670Z,26.70
2019-06-26T01:30:38.027Z,26.70
2019-06-26T01:35:43.765Z,26.70
2019-06-26T01:40:49.017Z,26.60
2019-06-26T01:45:57.447Z,26.50
2019-06-26T01:51:05.656Z,26.50
2019-06-26T01:56:10.730Z,26.60
2019-06-26T02:01:16.469Z,26.30
2019-06-26T02:06:21.769Z,26.40
2019-06-26T02:11:27.143Z,26.30
2019-06-26T02:16:32.659Z,26.20
2019-06-26T02:21:38.443Z,26.00
2019-06-26T02:26:43.504Z,25.80
2019-06-26T02:31:49.332Z,25.90
2019-06-26T02:41:59.012Z,26.00
2019-06-26T02:47:18.241Z,25.90
2019-06-26T02:52:11.074Z,25.80
2019-06-26T02:57:16.265Z,26.00
2019-06-26T03:02:23.849Z,25.60
2019-06-26T03:07:29.237Z,25.50
2019-06-26T03:12:34.444Z,25.50
2019-06-26T03:17:54.187Z,25.10
2019-06-26T03:22:46.865Z,25.00
2019-06-26T03:27:52.351Z,24.90
2019-06-26T03:32:57.654Z,24.80
2019-06-26T03:38:03.074Z,25.00
2019-06-26T03:43:11.001Z,25.00
2019-06-26T03:48:16.603Z,24.80
2019-06-26T03:53:21.806Z,25.00
2019-06-26T03:58:27.617Z,25.10
2019-06-26T04:03:33.207Z,25.10
2019-06-26T04:08:38.734Z,24.70
2019-06-26T04:13:43.676Z,25.20
2019-06-26T04:18:49.014Z,25.20
2019-06-26T04:23:54.834Z,25.20
2019-06-26T04:29:00.331Z,25.00
2019-06-26T04:34:05.786Z,25.00
2019-06-26T04:39:10.976Z,25.30
2019-06-26T04:44:16.546Z,25.20
2019-06-26T04:49:21.822Z,25.50
2019-06-26T04:54:28.092Z,25.50
2019-06-26T04:59:33.558Z,25.90
2019-06-26T05:04:39.351Z,25.80
2019-06-26T05:09:45.232Z,25.80
2019-06-26T05:14:51.040Z,25.70
2019-06-26T05:19:59.831Z,25.80
2019-06-26T05:25:05.382Z,26.20
2019-06-26T05:30:10.960Z,26.00
2019-06-26T05:35:16.305Z,26.20
2019-06-26T05:40:21.705Z,26.70
2019-06-26T05:45:27.407Z,26.80
2019-06-26T05:50:32.457Z,27.00
2019-06-26T05:55:38.038Z,27.00
2019-06-26T06:00:43.404Z,27.00
2019-06-26T06:05:48.875Z,27.40
2019-06-26T06:10:58.024Z,27.60
2019-06-26T06:16:01.662Z,27.80
2019-06-26T06:21:06.874Z,28.30
2019-06-26T06:26:39.837Z,24.40
2019-06-26T06:31:48.362Z,28.60
2019-06-26T06:36:55.573Z,28.60
2019-06-26T06:42:02.358Z,27.60
2019-06-26T06:47:09.148Z,28.30
2019-06-26T06:52:16.631Z,27.30
2019-06-26T06:57:21.420Z,28.20
2019-06-26T07:02:27.026Z,27.40
2019-06-26T07:07:32.365Z,27.40
2019-06-26T07:12:37.733Z,27.60
2019-06-26T07:17:43.315Z,27.30
2019-06-26T07:22:48.604Z,26.80
2019-06-26T07:27:54.130Z,28.40
2019-06-26T07:32:59.650Z,27.50
2019-06-26T07:38:05.059Z,27.40
2019-06-26T07:43:11.020Z,27.70
2019-06-26T07:48:16.274Z,27.90
2019-06-26T07:53:21.993Z,28.60
2019-06-26T07:58:27.400Z,29.80
2019-06-26T08:03:32.928Z,30.30
2019-06-26T08:08:38.441Z,29.30
2019-06-26T08:13:43.805Z,28.90
2019-06-26T08:18:49.324Z,28.60
2019-06-26T08:23:55.078Z,28.20
2019-06-26T08:29:00.419Z,28.20
2019-06-26T08:34:05.843Z,28.00
2019-06-26T08:39:10.888Z,29.60
2019-06-26T08:49:25.631Z,28.30
2019-06-26T08:54:27.442Z,30.40
2019-06-26T08:59:32.585Z,30.20
2019-06-26T09:04:40.405Z,29.30
2019-06-26T09:09:45.455Z,29.10
2019-06-26T09:14:51.537Z,29.90
2019-06-26T09:19:56.507Z,28.50
2019-06-26T09:25:16.853Z,30.10
2019-06-26T09:30:09.657Z,30.50
2019-06-26T09:35:15.667Z,31.20
2019-06-26T09:40:21.160Z,31.20
2019-06-26T09:45:26.347Z,31.60
2019-06-26T09:50:32.867Z,32.10
2019-06-26T09:55:38.181Z,29.30
2019-06-26T10:00:43.837Z,30.10
2019-06-26T10:05:49.463Z,31.10
2019-06-26T10:10:54.730Z,30.90
2019-06-26T10:16:00.723Z,29.50
2019-06-26T10:21:06.092Z,28.80
2019-06-26T10:26:11.053Z,28.20
2019-06-26T10:31:18.370Z,30.40
2019-06-26T10:36:24.587Z,29.00
2019-06-26T10:41:30.019Z,30.10
2019-06-26T10:46:35.608Z,31.30
2019-06-26T10:51:40.570Z,30.70
2019-06-26T10:56:45.808Z,30.60
2019-06-26T11:01:51.450Z,30.70
2019-06-26T11:06:56.535Z,28.60
2019-06-26T11:12:01.930Z,29.60
2019-06-26T11:17:06.910Z,29.10
2019-06-26T11:22:12.375Z,29.40
2019-06-26T11:27:17.774Z,29.30
2019-06-26T11:32:22.927Z,28.10
2019-06-26T11:37:28.732Z,29.10
2019-06-26T11:42:34.291Z,29.50
2019-06-26T11:47:39.586Z,29.40
2019-06-26T11:52:44.897Z,29.60
2019-06-26T11:57:50.686Z,30.30
2019-06-26T12:02:56.114Z,29.90
2019-06-26T12:08:01.533Z,29.30
2019-06-26T12:18:11.221Z,28.60
2019-06-26T12:23:16.259Z,28.40
2019-06-26T12:28:23.012Z,28.30
2019-06-26T12:33:28.874Z,28.50
2019-06-26T12:38:34.376Z,29.60
2019-06-26T12:48:44.786Z,29.70
2019-06-26T12:53:49.941Z,30.20
2019-06-26T12:58:55.229Z,28.80
2019-06-26T13:04:00.757Z,28.70
2019-06-26T13:09:07.751Z,30.20
2019-06-26T13:14:12.871Z,28.70
2019-06-26T13:19:18.137Z,28.60
2019-06-26T13:24:23.635Z,29.00
2019-06-26T13:29:29.553Z,29.00
2019-06-26T13:34:34.759Z,29.10
2019-06-26T13:39:39.845Z,29.20
2019-06-26T13:44:45.937Z,29.10
2019-06-26T13:49:51.365Z,29.00
2019-06-26T13:59:56.634Z,29.10
2019-06-26T14:05:08.133Z,28.80
2019-06-26T14:10:13.992Z,28.90
2019-06-26T14:15:19.438Z,29.60
2019-06-26T14:20:25.124Z,29.40
2019-06-26T14:25:30.080Z,28.90
2019-06-26T14:30:36.673Z,29.00
2019-06-26T14:35:42.455Z,28.80
2019-06-26T14:40:47.437Z,29.50
2019-06-26T14:45:52.861Z,29.20
2019-06-26T14:51:00.202Z,28.90
2019-06-26T14:56:05.867Z,29.00
2019-06-26T15:01:10.944Z,29.40
2019-06-26T15:06:17.333Z,29.00
2019-06-26T15:11:23.040Z,29.40
2019-06-26T15:16:30.495Z,29.10
2019-06-26T15:26:42.954Z,28.60
2019-06-26T15:31:48.335Z,29.00
2019-06-26T15:36:54.316Z,28.70
2019-06-26T15:42:02.578Z,28.90
2019-06-26T15:47:08.640Z,28.60
2019-06-26T15:52:15.463Z,28.90
2019-06-26T15:57:21.980Z,28.70
2019-06-26T16:02:27.687Z,28.60
2019-06-26T16:07:33.311Z,28.60
2019-06-26T16:12:39.172Z,28.40
2019-06-26T16:18:13.056Z,28.40
2019-06-26T16:28:25.897Z,28.60
2019-06-26T16:33:30.973Z,29.00
2019-06-26T16:38:36.774Z,28.70
2019-06-26T16:43:41.991Z,28.30
2019-06-26T16:48:47.178Z,28.30
2019-06-26T16:53:52.688Z,28.10
2019-06-26T16:58:57.967Z,28.30
2019-06-26T17:04:03.907Z,28.50
2019-06-26T17:15:16.981Z,28.30
2019-06-26T17:20:22.520Z,28.10
2019-06-26T17:25:27.821Z,28.00
2019-06-26T17:35:41.446Z,27.80
2019-06-26T17:40:47.276Z,27.80
2019-06-26T17:45:54.162Z,27.60
2019-06-26T17:50:59.588Z,27.50
2019-06-26T17:56:04.972Z,27.40
2019-06-26T18:01:10.798Z,27.40
2019-06-26T18:06:16.700Z,27.20
2019-06-26T18:11:22.278Z,27.00
2019-06-26T18:16:30.526Z,26.90
2019-06-26T18:21:36.189Z,26.50
2019-06-26T18:26:41.374Z,26.40
2019-06-26T18:31:46.930Z,26.00
2019-06-26T18:36:52.804Z,25.70
2019-06-26T18:41:58.550Z,25.70
2019-06-26T18:47:03.622Z,25.50
2019-06-26T18:52:08.748Z,25.50
2019-06-26T18:57:14.063Z,25.30
2019-06-26T19:02:19.498Z,25.10
2019-06-26T19:07:25.070Z,25.00
2019-06-26T19:17:35.164Z,24.90
2019-06-26T19:22:40.654Z,24.70
2019-06-26T19:27:49.359Z,24.90
2019-06-26T19:32:54.362Z,24.40
2019-06-26T19:37:59.806Z,24.40
2019-06-26T19:43:05.163Z,24.40
2019-06-26T19:48:10.508Z,24.20
2019-06-26T19:53:15.495Z,24.10
2019-06-26T19:58:21.681Z,24.10
2019-06-26T20:03:27.180Z,24.00
2019-06-26T20:08:32.701Z,24.20
2019-06-26T20:13:37.932Z,24.00
2019-06-26T20:18:43.683Z,23.90
2019-06-26T20:23:48.811Z,23.80
2019-06-26T20:28:54.216Z,23.70
2019-06-26T20:33:59.878Z,23.60
2019-06-26T20:39:06.145Z,23.50
2019-06-26T20:44:11.281Z,23.40
2019-06-26T20:49:16.687Z,23.40
2019-06-26T20:54:22.285Z,23.30
2019-06-26T20:59:27.517Z,23.20
2019-06-26T21:04:33.586Z,23.10
2019-06-26T21:09:38.788Z,23.00
2019-06-26T21:14:44.717Z,23.00
2019-06-26T21:19:50.022Z,22.80
2019-06-26T21:24:55.301Z,22.80
2019-06-26T21:30:00.686Z,22.70
2019-06-26T21:35:08.417Z,22.50
2019-06-26T21:40:13.975Z,22.50
2019-06-26T21:45:21.322Z,22.50
2019-06-26T21:50:29.111Z,22.30
2019-06-26T21:55:35.065Z,22.20
2019-06-26T22:00:40.865Z,22.10
2019-06-26T22:05:46.408Z,22.00
2019-06-26T22:10:51.902Z,21.90
2019-06-26T22:15:57.110Z,22.20
2019-06-26T22:21:02.072Z,21.70
2019-06-26T22:26:07.343Z,21.70
2019-06-26T22:31:12.450Z,21.70
2019-06-26T22:36:17.975Z,21.50
2019-06-26T22:41:23.109Z,21.40
2019-06-26T22:46:28.583Z,21.30
2019-06-26T22:51:33.765Z,21.10
2019-06-26T22:56:39.566Z,21.00
2019-06-26T23:01:45.009Z,21.00
2019-06-26T23:06:50.166Z,20.90
2019-06-26T23:11:57.437Z,20.80
2019-06-26T23:17:02.487Z,20.80
2019-06-26T23:22:07.450Z,20.70
2019-06-26T23:32:17.176Z,20.60
2019-06-26T23:37:22.997Z,20.50
2019-06-26T23:42:28.372Z,20.20
2019-06-26T23:47:33.805Z,20.30
2019-06-26T23:52:39.993Z,20.00
2019-06-26T23:57:58.410Z,20.00
